createdAt,value
2022-11-17T00:00:15.161Z,18.42
2022-11-17T00:02:41.748Z,16.08
2022-11-17T00:05:08.917Z,18.13
2022-11-17T00:07:37.705Z,17.85
2022-11-17T00:10:04.901Z,17.92
2022-11-17T00:12:49.841Z,16.92
2022-11-17T00:15:19.303Z,19.35
2022-11-17T00:18:08.611Z,17.65
2022-11-17T00:20:56.974Z,18.65
2022-11-17T00:23:25.296Z,18.33
2022-11-17T00:25:51.962Z,17.75
2022-11-17T00:28:18.478Z,19.40
2022-11-17T00:31:06.516Z,19.48
2022-11-17T00:33:51.728Z,20.25
2022-11-17T00:36:25.707Z,17.40
2022-11-17T00:38:52.135Z,20.30
2022-11-17T00:41:18.555Z,21.38
2022-11-17T00:43:45.123Z,21.00
2022-11-17T00:46:12.855Z,20.48
2022-11-17T00:48:39.391Z,16.80
2022-11-17T00:51:06.066Z,20.52
2022-11-17T00:53:33.210Z,20.20
2022-11-17T00:56:00.109Z,21.17
2022-11-17T00:58:29.693Z,20.83
2022-11-17T01:00:56.380Z,22.08
2022-11-17T01:03:22.939Z,21.50
2022-11-17T01:05:49.459Z,22.45
2022-11-17T01:08:18.302Z,22.70
2022-11-17T01:10:44.742Z,22.55
2022-11-17T01:13:11.287Z,21.40
2022-11-17T01:15:37.812Z,22.63
2022-11-17T01:18:04.352Z,21.20
2022-11-17T01:20:31.000Z,20.67
2022-11-17T01:22:57.511Z,20.92
2022-11-17T01:25:24.004Z,20.95
2022-11-17T01:27:50.509Z,21.48
2022-11-17T01:30:18.218Z,21.45
2022-11-17T01:32:44.690Z,19.02
2022-11-17T01:35:11.204Z,20.92
2022-11-17T01:37:37.689Z,18.23
2022-11-17T01:40:04.654Z,21.55
2022-11-17T01:42:33.814Z,20.13
2022-11-17T01:45:20.825Z,13.70
2022-11-17T01:47:58.701Z,19.98
2022-11-17T01:50:36.190Z,22.58
2022-11-17T01:53:10.340Z,22.40
2022-11-17T01:55:52.391Z,23.17
2022-11-17T01:58:22.994Z,23.13
2022-11-17T02:00:49.794Z,23.90
2022-11-17T02:03:19.111Z,19.58
2022-11-17T02:06:09.879Z,21.08
2022-11-17T02:08:39.049Z,21.58
2022-11-17T02:11:14.177Z,21.52
2022-11-17T02:13:41.371Z,23.30
2022-11-17T02:16:15.894Z,22.58
2022-11-17T02:18:43.768Z,20.98
2022-11-17T02:21:38.031Z,22.60
2022-11-17T02:24:07.589Z,20.98
2022-11-17T02:27:05.138Z,22.50
2022-11-17T02:29:37.489Z,22.30
2022-11-17T02:32:13.232Z,24.33
2022-11-17T02:35:11.725Z,23.88
2022-11-17T02:37:44.171Z,21.80
2022-11-17T02:40:20.880Z,21.48
2022-11-17T02:43:12.887Z,21.98
2022-11-17T02:45:58.541Z,21.65
2022-11-17T02:48:32.770Z,21.70
2022-11-17T02:51:02.527Z,20.83
2022-11-17T02:53:30.679Z,23.60
2022-11-17T02:56:01.207Z,19.52
2022-11-17T02:58:30.783Z,22.48
2022-11-17T03:01:23.291Z,20.98
2022-11-17T03:04:07.125Z,20.65
2022-11-17T03:06:53.711Z,20.67
2022-11-17T03:09:49.297Z,20.42
2022-11-17T03:12:38.268Z,21.83
2022-11-17T03:15:34.945Z,20.10
2022-11-17T03:18:18.261Z,20.38
2022-11-17T03:21:13.367Z,20.65
2022-11-17T03:23:51.179Z,21.83
2022-11-17T03:26:32.470Z,21.88
2022-11-17T03:29:08.310Z,21.50
2022-11-17T03:31:36.476Z,20.50
2022-11-17T03:34:06.948Z,21.13
2022-11-17T03:36:43.531Z,21.70
2022-11-17T03:39:23.705Z,20.67
2022-11-17T03:42:00.530Z,21.67
2022-11-17T03:44:33.804Z,19.63
2022-11-17T03:47:12.413Z,18.98
2022-11-17T03:49:53.017Z,20.95
2022-11-17T03:52:27.059Z,20.58
2022-11-17T03:55:00.975Z,20.00
2022-11-17T03:57:46.321Z,19.77
2022-11-17T04:00:15.666Z,20.30
2022-11-17T04:02:48.426Z,21.35
2022-11-17T04:05:23.163Z,20.77
2022-11-17T04:07:57.576Z,20.48
2022-11-17T04:10:26.462Z,21.05
2022-11-17T04:13:21.773Z,21.60
2022-11-17T04:15:56.561Z,20.17
2022-11-17T04:18:23.942Z,22.63
2022-11-17T04:20:58.245Z,21.60
2022-11-17T04:23:43.419Z,22.15
2022-11-17T04:26:43.902Z,22.63
2022-11-17T04:29:10.488Z,23.75
2022-11-17T04:31:45.680Z,23.27
2022-11-17T04:34:12.188Z,16.55
2022-11-17T04:36:47.921Z,20.45
2022-11-17T04:39:15.965Z,19.73
2022-11-17T04:42:11.600Z,22.48
2022-11-17T04:44:38.218Z,21.60
2022-11-17T04:47:12.750Z,21.48
2022-11-17T04:49:39.361Z,22.27
2022-11-17T04:52:06.135Z,21.85
2022-11-17T04:54:41.237Z,22.20
2022-11-17T04:57:15.786Z,23.63
2022-11-17T04:59:50.116Z,21.77
2022-11-17T05:02:24.815Z,23.55
2022-11-17T05:05:00.532Z,22.13
2022-11-17T05:07:36.109Z,21.80
2022-11-17T05:10:02.806Z,22.33
2022-11-17T05:12:47.763Z,23.05
2022-11-17T05:15:38.819Z,22.67
2022-11-17T05:18:13.601Z,22.73
2022-11-17T05:20:43.116Z,21.30
2022-11-17T05:23:28.205Z,25.02
2022-11-17T05:25:54.792Z,24.35
2022-11-17T05:28:21.267Z,22.92
2022-11-17T05:30:47.854Z,23.25
2022-11-17T05:33:36.427Z,24.33
2022-11-17T05:36:06.078Z,24.10
2022-11-17T05:38:32.640Z,21.02
2022-11-17T05:41:00.159Z,24.75
2022-11-17T05:43:27.110Z,25.55
2022-11-17T05:45:53.675Z,24.17
2022-11-17T05:48:20.541Z,24.55
2022-11-17T05:50:47.367Z,26.42
2022-11-17T05:53:13.989Z,26.65
2022-11-17T05:55:43.123Z,26.00
2022-11-17T05:58:28.388Z,25.95
2022-11-17T06:00:57.060Z,24.05
2022-11-17T06:03:47.451Z,24.75
2022-11-17T06:06:16.029Z,22.92
2022-11-17T06:08:42.935Z,24.25
2022-11-17T06:11:14.711Z,25.58
2022-11-17T06:13:41.320Z,25.85
2022-11-17T06:16:15.757Z,26.55
2022-11-17T06:19:00.472Z,27.38
2022-11-17T06:22:04.467Z,26.05
2022-11-17T06:24:31.550Z,25.50
2022-11-17T06:27:06.599Z,22.75
2022-11-17T06:29:44.720Z,22.95
2022-11-17T06:32:14.279Z,25.60
2022-11-17T06:34:42.149Z,25.17
2022-11-17T06:37:12.342Z,26.05
2022-11-17T06:39:38.998Z,25.73
2022-11-17T06:42:08.506Z,26.13
2022-11-17T06:44:38.540Z,27.98
2022-11-17T06:47:05.157Z,27.50
2022-11-17T06:49:31.733Z,28.15
2022-11-17T06:51:58.207Z,26.92
2022-11-17T06:54:24.728Z,26.48
2022-11-17T06:56:52.802Z,29.48
2022-11-17T06:59:19.454Z,29.33
2022-11-17T07:01:53.054Z,25.88
2022-11-17T07:04:19.830Z,27.05
2022-11-17T07:06:46.304Z,27.15
2022-11-17T07:09:21.328Z,29.65
2022-11-17T07:11:54.521Z,29.52
2022-11-17T07:14:31.251Z,28.73
2022-11-17T07:17:06.110Z,28.38
2022-11-17T07:19:36.218Z,28.70
2022-11-17T07:22:04.093Z,29.02
2022-11-17T07:24:37.743Z,26.63
2022-11-17T07:27:12.660Z,17.85
2022-11-17T07:29:39.575Z,25.98
2022-11-17T07:32:06.174Z,24.55
2022-11-17T07:34:40.635Z,16.65
2022-11-17T07:37:15.144Z,26.05
2022-11-17T07:39:42.419Z,24.77
2022-11-17T07:42:11.709Z,25.83
2022-11-17T07:44:40.703Z,27.58
2022-11-17T07:47:15.066Z,29.65
2022-11-17T07:49:50.429Z,17.25
2022-11-17T07:52:26.233Z,26.98
2022-11-17T07:54:53.617Z,26.27
2022-11-17T07:57:21.485Z,30.17
2022-11-17T07:59:56.246Z,27.00
2022-11-17T08:02:31.605Z,25.98
2022-11-17T08:05:06.267Z,18.23
2022-11-17T08:07:41.540Z,24.70
2022-11-17T08:10:25.947Z,25.25
2022-11-17T08:13:03.963Z,25.27
2022-11-17T08:15:39.068Z,28.88
2022-11-17T08:18:13.676Z,16.80
2022-11-17T08:20:43.732Z,23.23
2022-11-17T08:23:11.694Z,17.83
2022-11-17T08:25:44.761Z,22.08
2022-11-17T08:28:11.398Z,22.80
2022-11-17T08:30:46.369Z,22.60
2022-11-17T08:33:22.918Z,15.93
2022-11-17T08:35:58.820Z,16.65
2022-11-17T08:38:33.475Z,25.20
2022-11-17T08:41:12.076Z,26.85
2022-11-17T08:43:46.699Z,25.30
2022-11-17T08:46:21.578Z,25.50
2022-11-17T08:48:56.819Z,25.70
2022-11-17T08:51:34.752Z,26.65
2022-11-17T08:54:02.217Z,27.60
2022-11-17T08:56:28.925Z,26.70
2022-11-17T08:59:00.231Z,20.35
2022-11-17T09:01:27.372Z,18.10
2022-11-17T09:03:54.186Z,19.40
2022-11-17T09:06:20.808Z,26.10
2022-11-17T09:08:55.710Z,15.13
2022-11-17T09:11:30.557Z,26.60
2022-11-17T09:14:05.971Z,23.75
2022-11-17T09:16:40.695Z,27.67
2022-11-17T09:19:09.741Z,26.98
2022-11-17T09:21:39.442Z,28.90
2022-11-17T09:24:14.702Z,18.73
2022-11-17T09:26:51.713Z,26.73
2022-11-17T09:29:28.436Z,23.95
2022-11-17T09:32:02.911Z,29.20
2022-11-17T09:34:37.679Z,29.73
2022-11-17T09:37:14.588Z,29.05
2022-11-17T09:39:49.121Z,30.27
2022-11-17T09:42:24.783Z,29.30
2022-11-17T09:45:09.406Z,29.40
2022-11-17T09:48:34.047Z,30.45
2022-11-17T09:50:57.959Z,25.63
2022-11-17T09:53:48.179Z,30.17
2022-11-17T09:56:15.204Z,29.23
2022-11-17T09:58:50.903Z,21.45
2022-11-17T10:01:28.305Z,23.30
2022-11-17T10:03:56.998Z,22.52
2022-11-17T10:06:27.913Z,22.67
2022-11-17T10:09:02.814Z,20.10
2022-11-17T10:11:40.177Z,29.05
2022-11-17T10:14:15.150Z,22.77
2022-11-17T10:16:50.881Z,31.48
2022-11-17T10:19:26.278Z,30.80
2022-11-17T10:22:33.788Z,32.35
2022-11-17T10:25:22.715Z,31.17
2022-11-17T10:27:57.626Z,31.65
2022-11-17T10:30:24.830Z,30.27
2022-11-17T10:33:04.105Z,33.35
2022-11-17T10:35:39.033Z,29.83
2022-11-17T10:38:23.818Z,23.02
2022-11-17T10:40:59.171Z,31.17
2022-11-17T10:43:43.257Z,32.72
2022-11-17T10:46:22.381Z,30.65
2022-11-17T10:49:24.494Z,21.67
2022-11-17T10:52:12.546Z,30.13
2022-11-17T10:54:46.445Z,29.25
2022-11-17T10:57:26.590Z,32.50
2022-11-17T11:00:07.561Z,30.88
2022-11-17T11:02:43.732Z,30.33
2022-11-17T11:05:18.506Z,32.30
2022-11-17T11:07:52.371Z,32.28
2022-11-17T11:10:36.597Z,30.73
2022-11-17T11:13:33.477Z,33.53
2022-11-17T11:16:00.020Z,33.50
2022-11-17T11:18:30.180Z,33.42
2022-11-17T11:21:18.155Z,30.92
2022-11-17T11:23:55.451Z,30.58
2022-11-17T11:26:39.977Z,31.60
2022-11-17T11:29:23.098Z,30.60
2022-11-17T11:32:08.271Z,31.35
2022-11-17T11:35:00.156Z,31.10
2022-11-17T11:37:57.978Z,29.55
2022-11-17T11:40:26.749Z,30.52
2022-11-17T11:42:58.882Z,31.60
2022-11-17T11:45:47.129Z,30.10
2022-11-17T11:48:27.179Z,31.63
2022-11-17T11:50:57.926Z,30.48
2022-11-17T11:53:36.487Z,28.63
2022-11-17T11:56:36.266Z,27.77
2022-11-17T11:59:48.253Z,30.60
2022-11-17T12:02:35.080Z,30.90
2022-11-17T12:05:28.061Z,31.42
2022-11-17T12:08:09.061Z,31.08
2022-11-17T12:10:39.934Z,31.55
2022-11-17T12:13:14.305Z,27.17
2022-11-17T12:15:40.971Z,30.50
2022-11-17T12:18:16.619Z,31.10
2022-11-17T12:20:51.960Z,30.33
2022-11-17T12:23:34.651Z,29.42
2022-11-17T12:26:02.802Z,30.17
2022-11-17T12:28:41.661Z,24.40
2022-11-17T12:31:42.874Z,28.75
2022-11-17T12:34:33.706Z,30.55
2022-11-17T12:37:13.201Z,30.13
2022-11-17T12:40:01.590Z,28.27
2022-11-17T12:42:30.711Z,28.48
2022-11-17T12:45:00.295Z,30.58
2022-11-17T12:47:29.677Z,29.42
2022-11-17T12:50:17.404Z,30.58
2022-11-17T12:53:08.828Z,31.25
2022-11-17T12:55:35.365Z,29.17
2022-11-17T12:58:28.603Z,23.63
2022-11-17T13:01:15.082Z,28.52
2022-11-17T13:04:12.331Z,29.92
2022-11-17T13:06:39.223Z,28.48
2022-11-17T13:09:11.466Z,29.83
2022-11-17T13:11:38.090Z,30.30
2022-11-17T13:14:14.950Z,29.75
2022-11-17T13:16:50.797Z,27.38
2022-11-17T13:19:38.026Z,29.35
2022-11-17T13:22:12.194Z,30.02
2022-11-17T13:24:40.508Z,28.95
2022-11-17T13:27:23.243Z,31.10
2022-11-17T13:29:52.374Z,31.38
2022-11-17T13:32:26.569Z,27.98
2022-11-17T13:34:59.946Z,28.48
2022-11-17T13:37:31.041Z,30.38
2022-11-17T13:40:15.344Z,28.83
2022-11-17T13:42:42.561Z,29.50
2022-11-17T13:45:14.913Z,32.83
2022-11-17T13:47:49.937Z,31.55
2022-11-17T13:50:26.038Z,31.00
2022-11-17T13:52:54.792Z,35.67
2022-11-17T13:55:22.564Z,36.00
2022-11-17T13:58:31.050Z,39.35
2022-11-17T14:00:58.892Z,40.63
2022-11-17T14:03:37.250Z,42.83
2022-11-17T14:06:07.828Z,43.15
2022-11-17T14:08:35.923Z,41.28
2022-11-17T14:11:11.750Z,42.38
2022-11-17T14:13:45.243Z,43.13
2022-11-17T14:16:31.196Z,39.58
2022-11-17T14:19:04.535Z,42.83
2022-11-17T14:21:35.991Z,42.72
2022-11-17T14:24:11.229Z,46.28
2022-11-17T14:26:44.725Z,44.72
2022-11-17T14:29:13.574Z,44.88
2022-11-17T14:31:40.351Z,45.40
2022-11-17T14:34:07.253Z,45.10
2022-11-17T14:36:35.194Z,45.90
2022-11-17T14:39:02.851Z,48.03
2022-11-17T14:41:29.836Z,49.97
2022-11-17T14:43:56.740Z,45.88
2022-11-17T14:46:26.977Z,48.47
2022-11-17T14:48:54.143Z,49.25
2022-11-17T14:51:21.374Z,55.83
2022-11-17T14:53:49.926Z,55.95
2022-11-17T14:56:19.024Z,56.63
2022-11-17T14:58:46.809Z,64.93
2022-11-17T15:01:19.890Z,67.10
2022-11-17T15:03:46.843Z,66.43
2022-11-17T15:06:19.378Z,66.72
2022-11-17T15:08:47.349Z,64.90
2022-11-17T15:11:17.934Z,75.65
2022-11-17T15:13:44.763Z,69.32
2022-11-17T15:16:12.098Z,72.10
2022-11-17T15:18:40.731Z,74.32
2022-11-17T15:21:09.972Z,67.78
2022-11-17T15:23:43.208Z,73.00
2022-11-17T15:26:15.739Z,71.90
2022-11-17T15:28:43.174Z,60.15
2022-11-17T15:31:18.416Z,70.65
2022-11-17T15:33:46.801Z,64.35
2022-11-17T15:36:18.219Z,65.97
2022-11-17T15:38:45.281Z,69.32
2022-11-17T15:41:18.702Z,65.07
2022-11-17T15:43:45.532Z,66.32
2022-11-17T15:46:14.611Z,61.80
2022-11-17T15:48:42.994Z,57.60
2022-11-17T15:51:12.943Z,64.63
2022-11-17T15:53:39.601Z,60.95
2022-11-17T15:56:08.864Z,56.17
2022-11-17T15:58:36.068Z,52.30
2022-11-17T16:01:27.854Z,59.10
2022-11-17T16:04:05.831Z,55.05
2022-11-17T16:06:34.244Z,54.10
2022-11-17T16:09:03.410Z,48.78
2022-11-17T16:11:33.505Z,53.80
2022-11-17T16:14:01.072Z,54.63
2022-11-17T16:16:34.945Z,54.53
2022-11-17T16:19:03.764Z,55.80
2022-11-17T16:21:30.334Z,56.28
2022-11-17T16:23:57.735Z,53.65
2022-11-17T16:26:26.208Z,50.30
2022-11-17T16:29:01.158Z,54.38
2022-11-17T16:31:40.516Z,49.22
2022-11-17T16:34:12.159Z,54.08
2022-11-17T16:36:40.924Z,58.67
2022-11-17T16:39:13.768Z,53.33
2022-11-17T16:41:42.994Z,54.53
2022-11-17T16:44:16.284Z,47.08
2022-11-17T16:46:45.436Z,55.60
2022-11-17T16:49:16.820Z,59.63
2022-11-17T16:51:51.998Z,58.58
2022-11-17T16:54:20.020Z,54.95
2022-11-17T16:56:46.745Z,55.40
2022-11-17T16:59:14.488Z,55.53
2022-11-17T17:01:41.406Z,55.33
2022-11-17T17:04:10.071Z,55.05
2022-11-17T17:06:41.000Z,59.50
2022-11-17T17:09:09.726Z,54.67
2022-11-17T17:11:46.838Z,57.38
2022-11-17T17:14:20.911Z,55.72
2022-11-17T17:16:47.505Z,55.55
2022-11-17T17:19:24.369Z,57.70
2022-11-17T17:21:59.331Z,56.78
2022-11-17T17:24:25.931Z,56.63
2022-11-17T17:26:58.000Z,55.72
2022-11-17T17:31:58.950Z,58.38
2022-11-17T17:34:25.489Z,59.78
2022-11-17T17:36:52.106Z,59.08
2022-11-17T17:39:18.853Z,56.00
2022-11-17T17:41:48.246Z,60.95
2022-11-17T17:44:17.536Z,55.63
2022-11-17T17:46:46.887Z,54.20
2022-11-17T17:49:13.613Z,54.38
2022-11-17T17:51:44.066Z,57.70
2022-11-17T17:54:40.060Z,56.85
2022-11-17T17:57:06.544Z,57.22
2022-11-17T17:59:33.047Z,52.45
2022-11-17T18:02:02.538Z,54.13
2022-11-17T18:04:29.572Z,56.28
2022-11-17T18:06:57.414Z,56.40
2022-11-17T18:09:23.902Z,53.03
2022-11-17T18:11:51.218Z,58.92
2022-11-17T18:14:23.791Z,57.80
2022-11-17T18:16:53.762Z,61.00
2022-11-17T18:19:27.073Z,51.45
2022-11-17T18:22:07.581Z,60.70
2022-11-17T18:24:34.254Z,60.50
2022-11-17T18:27:00.784Z,55.95
2022-11-17T18:29:39.578Z,61.45
2022-11-17T18:32:06.292Z,52.90
2022-11-17T18:34:32.842Z,43.15
2022-11-17T18:36:59.962Z,55.20
2022-11-17T18:39:28.319Z,45.92
2022-11-17T18:41:54.939Z,61.28
2022-11-17T18:44:21.470Z,60.00
2022-11-17T18:46:48.035Z,63.58
2022-11-17T18:49:15.105Z,63.00
2022-11-17T18:51:41.958Z,61.58
2022-11-17T18:54:11.533Z,59.20
2022-11-17T18:56:44.065Z,56.53
2022-11-17T18:59:13.687Z,60.80
2022-11-17T19:01:46.255Z,55.28
2022-11-17T19:04:13.888Z,45.58
2022-11-17T19:06:42.770Z,56.17
2022-11-17T19:09:09.795Z,44.67
2022-11-17T19:11:39.108Z,47.80
2022-11-17T19:14:06.271Z,48.97
2022-11-17T19:16:44.911Z,58.67
2022-11-17T19:19:13.129Z,61.78
2022-11-17T19:21:48.865Z,59.28
2022-11-17T19:24:15.597Z,57.78
2022-11-17T19:26:46.447Z,58.83
2022-11-17T19:29:17.021Z,60.80
2022-11-17T19:31:47.972Z,56.17
2022-11-17T19:34:15.240Z,56.47
2022-11-17T19:36:42.010Z,57.42
2022-11-17T19:39:08.572Z,59.97
2022-11-17T19:41:48.743Z,60.20
2022-11-17T19:44:15.435Z,58.88
2022-11-17T19:46:43.199Z,55.25
2022-11-17T19:49:12.783Z,52.67
2022-11-17T19:51:39.817Z,53.40
2022-11-17T19:54:15.618Z,50.97
2022-11-17T19:56:43.602Z,54.17
2022-11-17T19:59:15.700Z,56.67
2022-11-17T20:01:43.470Z,54.10
2022-11-17T20:04:10.113Z,55.60
2022-11-17T20:06:41.867Z,58.97
2022-11-17T20:09:10.887Z,49.88
2022-11-17T20:11:37.918Z,51.65
2022-11-17T20:14:08.038Z,59.72
2022-11-17T20:16:34.708Z,58.72
2022-11-17T20:19:04.680Z,61.08
2022-11-17T20:21:41.161Z,60.35
2022-11-17T20:24:11.262Z,57.92
2022-11-17T20:26:43.634Z,59.40
2022-11-17T20:29:18.531Z,60.47
2022-11-17T20:31:45.283Z,60.13
2022-11-17T20:34:12.583Z,61.58
2022-11-17T20:36:49.031Z,63.38
2022-11-17T20:39:15.868Z,60.47
2022-11-17T20:41:42.602Z,59.15
2022-11-17T20:44:24.940Z,63.83
2022-11-17T20:46:56.089Z,62.90
2022-11-17T20:49:24.422Z,51.93
2022-11-17T20:51:59.265Z,56.95
2022-11-17T20:54:25.802Z,52.58
2022-11-17T20:56:55.489Z,56.50
2022-11-17T20:59:22.365Z,58.58
2022-11-17T21:01:51.716Z,61.80
2022-11-17T21:04:19.072Z,60.47
2022-11-17T21:06:52.604Z,58.03
2022-11-17T21:09:28.579Z,64.35
2022-11-17T21:11:59.917Z,52.15
2022-11-17T21:14:27.549Z,63.90
2022-11-17T21:17:02.073Z,58.72
2022-11-17T21:19:39.056Z,60.88
2022-11-17T21:22:13.787Z,61.30
2022-11-17T21:24:47.144Z,44.92
2022-11-17T21:27:15.006Z,59.47
2022-11-17T21:29:41.500Z,61.22
2022-11-17T21:32:10.401Z,63.85
2022-11-17T21:34:40.321Z,55.00
2022-11-17T21:37:24.209Z,55.42
2022-11-17T21:39:54.388Z,53.75
2022-11-17T21:42:20.945Z,59.50
2022-11-17T21:44:55.705Z,63.53
2022-11-17T21:47:22.801Z,61.70
2022-11-17T21:49:49.512Z,59.30
2022-11-17T21:52:19.214Z,56.85
2022-11-17T21:54:46.054Z,56.72
2022-11-17T21:57:14.737Z,42.20
2022-11-17T21:59:41.245Z,35.95
2022-11-17T22:02:09.912Z,38.38
2022-11-17T22:04:48.382Z,51.28
2022-11-17T22:07:23.197Z,44.78
2022-11-17T22:09:50.059Z,47.17
2022-11-17T22:12:16.617Z,57.20
2022-11-17T22:14:43.140Z,51.40
2022-11-17T22:17:12.584Z,53.47
2022-11-17T22:19:39.153Z,53.78
2022-11-17T22:22:13.700Z,52.35
2022-11-17T22:24:42.365Z,40.65
2022-11-17T22:27:12.757Z,42.47
2022-11-17T22:29:39.380Z,35.10
2022-11-17T22:32:05.972Z,45.10
2022-11-17T22:34:32.795Z,47.55
2022-11-17T22:36:59.336Z,43.90
2022-11-17T22:39:31.794Z,51.78
2022-11-17T22:41:58.468Z,34.40
2022-11-17T22:44:25.360Z,39.15
2022-11-17T22:46:52.032Z,48.35
2022-11-17T22:49:22.582Z,46.35
2022-11-17T22:52:04.072Z,48.63
2022-11-17T22:54:39.581Z,46.78
2022-11-17T22:57:14.629Z,45.80
2022-11-17T22:59:49.057Z,48.33
2022-11-17T23:02:15.989Z,37.38
2022-11-17T23:04:42.528Z,38.22
2022-11-17T23:07:17.281Z,37.83
2022-11-17T23:09:44.285Z,43.78
2022-11-17T23:12:11.053Z,35.88
2022-11-17T23:14:42.797Z,40.05
2022-11-17T23:17:09.403Z,40.25
2022-11-17T23:19:44.023Z,39.97
2022-11-17T23:22:18.473Z,38.63
2022-11-17T23:24:52.901Z,37.42
2022-11-17T23:27:22.560Z,38.40
2022-11-17T23:29:49.996Z,39.38
2022-11-17T23:32:25.037Z,39.40
2022-11-17T23:34:51.636Z,40.22
2022-11-17T23:37:27.495Z,38.47
2022-11-17T23:39:54.096Z,35.13
2022-11-17T23:42:29.908Z,33.50
2022-11-17T23:44:59.213Z,37.00
2022-11-17T23:47:35.373Z,37.45
2022-11-17T23:50:05.317Z,39.72
2022-11-17T23:52:32.118Z,37.55
2022-11-17T23:55:06.380Z,38.72
2022-11-17T23:57:37.301Z,39.85
